createdAt,value
2022-12-31T00:00:41.654Z,31.77
2022-12-31T00:03:27.636Z,32.20
2022-12-31T00:06:15.488Z,27.52
2022-12-31T00:09:04.058Z,29.17
2022-12-31T00:11:49.218Z,28.10
2022-12-31T00:14:36.618Z,29.40
2022-12-31T00:17:21.885Z,26.55
2022-12-31T00:20:08.630Z,30.80
2022-12-31T00:22:54.364Z,27.75
2022-12-31T00:25:39.703Z,28.15
2022-12-31T00:28:25.117Z,26.50
2022-12-31T00:31:16.473Z,28.00
2022-12-31T00:34:02.831Z,26.17
2022-12-31T00:36:48.443Z,29.70
2022-12-31T00:39:34.485Z,27.60
2022-12-31T00:42:19.968Z,26.20
2022-12-31T00:45:06.021Z,28.20
2022-12-31T00:47:53.037Z,25.52
2022-12-31T00:50:38.582Z,25.17
2022-12-31T00:53:24.475Z,25.13
2022-12-31T00:56:12.970Z,24.95
2022-12-31T00:58:59.542Z,29.38
2022-12-31T01:01:45.299Z,25.75
2022-12-31T01:04:32.633Z,27.27
2022-12-31T01:07:18.263Z,24.90
2022-12-31T01:10:04.009Z,25.60
2022-12-31T01:12:49.366Z,25.45
2022-12-31T01:15:35.753Z,28.02
2022-12-31T01:18:21.438Z,24.27
2022-12-31T01:21:12.148Z,25.27
2022-12-31T01:23:58.510Z,25.67
2022-12-31T01:26:44.610Z,23.65
2022-12-31T01:29:30.237Z,22.38
2022-12-31T01:32:15.634Z,24.30
2022-12-31T01:35:00.853Z,27.13
2022-12-31T01:37:47.772Z,22.42
2022-12-31T01:40:37.338Z,22.48
2022-12-31T01:43:23.096Z,25.23
2022-12-31T01:46:10.451Z,25.35
2022-12-31T01:49:00.739Z,25.63
2022-12-31T01:51:49.825Z,23.52
2022-12-31T01:54:42.152Z,24.55
2022-12-31T01:57:28.247Z,23.88
2022-12-31T02:00:14.678Z,25.20
2022-12-31T02:03:00.453Z,23.10
2022-12-31T02:05:50.069Z,24.20
2022-12-31T02:08:41.784Z,23.33
2022-12-31T02:11:31.519Z,26.08
2022-12-31T02:14:21.056Z,23.15
2022-12-31T02:17:13.303Z,23.05
2022-12-31T02:20:33.756Z,22.40
2022-12-31T02:23:51.709Z,21.67
2022-12-31T02:26:55.013Z,20.77
2022-12-31T02:30:10.682Z,23.42
2022-12-31T02:33:11.555Z,23.60
2022-12-31T02:36:01.420Z,23.55
2022-12-31T02:38:48.993Z,22.45
2022-12-31T02:41:50.176Z,22.70
2022-12-31T02:44:37.873Z,20.58
2022-12-31T02:47:37.810Z,21.77
2022-12-31T02:50:35.686Z,21.95
2022-12-31T02:53:43.731Z,21.77
2022-12-31T02:56:36.194Z,20.92
2022-12-31T02:59:46.888Z,21.17
2022-12-31T03:02:36.666Z,27.42
2022-12-31T03:05:25.131Z,24.13
2022-12-31T03:08:11.017Z,24.98
2022-12-31T03:10:57.315Z,27.75
2022-12-31T03:13:42.809Z,26.88
2022-12-31T03:16:28.391Z,26.70
2022-12-31T03:19:34.038Z,24.42
2022-12-31T03:22:28.597Z,25.15
2022-12-31T03:25:35.512Z,25.45
2022-12-31T03:28:24.790Z,25.33
2022-12-31T03:31:10.297Z,28.33
2022-12-31T03:33:55.985Z,25.10
2022-12-31T03:36:42.845Z,25.50
2022-12-31T03:39:28.637Z,26.05
2022-12-31T03:42:13.895Z,25.13
2022-12-31T03:44:59.186Z,24.40
2022-12-31T03:47:45.016Z,25.83
2022-12-31T03:50:30.529Z,24.88
2022-12-31T03:53:17.924Z,24.33
2022-12-31T03:56:03.691Z,23.95
2022-12-31T03:58:49.167Z,25.77
2022-12-31T04:01:34.527Z,25.02
2022-12-31T04:04:20.441Z,26.90
2022-12-31T04:07:06.012Z,23.88
2022-12-31T04:09:52.717Z,23.35
2022-12-31T04:12:38.967Z,25.73
2022-12-31T04:15:24.419Z,25.63
2022-12-31T04:18:09.541Z,25.52
2022-12-31T04:20:54.996Z,24.35
2022-12-31T04:23:40.208Z,25.38
2022-12-31T04:26:26.984Z,24.30
2022-12-31T04:29:12.749Z,23.27
2022-12-31T04:31:58.285Z,24.02
2022-12-31T04:34:44.157Z,25.73
2022-12-31T04:37:30.139Z,24.50
2022-12-31T04:40:16.070Z,23.70
2022-12-31T04:43:03.213Z,26.90
2022-12-31T04:45:49.077Z,26.27
2022-12-31T04:48:35.153Z,26.27
2022-12-31T04:51:22.337Z,27.65
2022-12-31T04:54:07.997Z,27.77
2022-12-31T04:56:53.878Z,25.95
2022-12-31T04:59:40.959Z,28.55
2022-12-31T05:02:26.394Z,24.35
2022-12-31T05:05:12.292Z,27.38
2022-12-31T05:07:57.965Z,28.17
2022-12-31T05:10:45.014Z,29.25
2022-12-31T05:13:33.540Z,25.60
2022-12-31T05:16:21.132Z,30.48
2022-12-31T05:19:09.687Z,28.55
2022-12-31T05:22:13.791Z,30.42
2022-12-31T05:25:00.422Z,27.48
2022-12-31T05:27:46.153Z,31.33
2022-12-31T05:30:31.604Z,27.27
2022-12-31T05:33:19.790Z,29.17
2022-12-31T05:36:06.225Z,28.13
2022-12-31T05:38:51.850Z,29.38
2022-12-31T05:41:38.647Z,29.77
2022-12-31T05:44:24.473Z,34.58
2022-12-31T05:47:10.155Z,40.28
2022-12-31T05:49:57.313Z,33.27
2022-12-31T05:52:47.399Z,36.47
2022-12-31T05:55:33.415Z,35.60
2022-12-31T05:58:19.373Z,32.72
2022-12-31T06:01:05.463Z,35.55
2022-12-31T06:03:51.065Z,32.37
2022-12-31T06:06:38.134Z,31.40
2022-12-31T06:09:24.087Z,33.38
2022-12-31T06:12:09.873Z,31.02
2022-12-31T06:14:55.619Z,32.85
2022-12-31T06:17:40.854Z,31.43
2022-12-31T06:20:26.372Z,33.75
2022-12-31T06:23:12.939Z,37.78
2022-12-31T06:26:01.777Z,37.58
2022-12-31T06:28:47.313Z,38.70
2022-12-31T06:31:33.182Z,39.10
2022-12-31T06:34:18.845Z,44.63
2022-12-31T06:37:04.394Z,45.38
2022-12-31T06:39:51.187Z,43.67
2022-12-31T06:42:36.603Z,42.95
2022-12-31T06:45:21.758Z,45.22
2022-12-31T06:48:07.540Z,43.65
2022-12-31T06:50:53.394Z,47.42
2022-12-31T06:53:38.795Z,47.92
2022-12-31T06:56:33.875Z,46.92
2022-12-31T06:59:26.199Z,47.20
2022-12-31T07:02:26.354Z,42.40
2022-12-31T07:05:34.588Z,45.45
2022-12-31T07:08:37.803Z,45.03
2022-12-31T07:11:30.425Z,47.80
2022-12-31T07:14:27.948Z,39.47
2022-12-31T07:17:24.666Z,44.83
2022-12-31T07:20:13.197Z,46.90
2022-12-31T07:22:59.538Z,43.45
2022-12-31T07:25:55.977Z,44.75
2022-12-31T07:28:53.425Z,46.03
2022-12-31T07:31:54.850Z,46.38
2022-12-31T07:34:45.639Z,45.25
2022-12-31T07:37:39.257Z,44.90
2022-12-31T07:40:34.367Z,43.38
2022-12-31T07:43:28.136Z,46.83
2022-12-31T07:46:22.286Z,43.70
2022-12-31T07:49:11.186Z,47.65
2022-12-31T07:51:57.200Z,45.38
2022-12-31T07:54:43.056Z,42.88
2022-12-31T07:57:36.781Z,42.67
2022-12-31T08:00:23.205Z,41.22
2022-12-31T08:03:21.741Z,43.30
2022-12-31T08:06:12.478Z,45.17
2022-12-31T08:09:04.346Z,43.33
2022-12-31T08:11:55.545Z,44.53
2022-12-31T08:14:44.564Z,42.75
2022-12-31T08:17:30.305Z,45.05
2022-12-31T08:20:18.368Z,44.35
2022-12-31T08:23:20.439Z,42.35
2022-12-31T08:26:23.663Z,43.20
2022-12-31T08:29:26.815Z,48.97
2022-12-31T08:32:18.814Z,45.33
2022-12-31T08:35:12.823Z,46.95
2022-12-31T08:38:07.840Z,53.22
2022-12-31T08:41:01.425Z,66.97
2022-12-31T08:43:53.822Z,61.08
2022-12-31T08:46:45.122Z,62.88
2022-12-31T08:49:33.151Z,60.10
2022-12-31T08:52:23.287Z,58.30
2022-12-31T08:55:14.050Z,59.00
2022-12-31T08:58:12.604Z,56.22
2022-12-31T09:00:59.541Z,55.60
2022-12-31T09:04:01.468Z,55.17
2022-12-31T09:06:55.246Z,46.53
2022-12-31T09:10:01.977Z,49.05
2022-12-31T09:12:55.040Z,43.25
2022-12-31T09:15:43.937Z,44.95
2022-12-31T09:18:33.299Z,43.05
2022-12-31T09:21:19.178Z,44.03
2022-12-31T09:24:09.320Z,50.22
2022-12-31T09:27:04.731Z,43.95
2022-12-31T09:30:00.400Z,46.38
2022-12-31T09:33:00.782Z,49.90
2022-12-31T09:35:52.748Z,51.05
2022-12-31T09:38:52.730Z,54.58
2022-12-31T09:42:05.028Z,53.80
2022-12-31T09:45:34.440Z,49.47
2022-12-31T09:49:11.843Z,49.58
2022-12-31T09:52:11.000Z,49.72
2022-12-31T09:55:05.593Z,47.50
2022-12-31T09:58:01.941Z,47.30
2022-12-31T10:00:53.748Z,54.97
2022-12-31T10:04:03.559Z,47.00
2022-12-31T10:06:59.977Z,52.17
2022-12-31T10:09:59.657Z,52.63
2022-12-31T10:13:13.324Z,51.85
2022-12-31T10:16:40.647Z,51.05
2022-12-31T10:19:50.660Z,52.30
2022-12-31T10:23:08.698Z,53.05
2022-12-31T10:26:06.193Z,52.53
2022-12-31T10:28:58.354Z,61.33
2022-12-31T10:31:56.749Z,79.85
2022-12-31T10:34:52.926Z,68.55
2022-12-31T10:37:46.694Z,72.22
2022-12-31T10:40:52.951Z,68.70
2022-12-31T10:44:09.751Z,74.15
2022-12-31T10:47:22.533Z,77.82
2022-12-31T10:50:40.540Z,54.03
2022-12-31T10:54:01.535Z,51.20
2022-12-31T10:57:20.655Z,43.50
2022-12-31T11:00:13.997Z,36.90
2022-12-31T11:03:34.279Z,43.40
2022-12-31T11:06:50.331Z,46.72
2022-12-31T11:10:04.140Z,44.70
2022-12-31T11:13:24.413Z,38.70
2022-12-31T11:16:20.446Z,30.90
2022-12-31T11:19:18.190Z,25.23
2022-12-31T11:22:21.946Z,23.58
2022-12-31T11:25:22.625Z,22.20
2022-12-31T11:28:19.036Z,21.83
2022-12-31T11:31:18.825Z,22.93
2022-12-31T11:34:24.248Z,21.55
2022-12-31T11:37:29.629Z,19.10
2022-12-31T11:40:31.162Z,20.23
2022-12-31T11:43:35.655Z,16.30
2022-12-31T11:46:43.904Z,16.03
2022-12-31T11:49:42.603Z,20.60
2022-12-31T11:52:49.776Z,16.10
2022-12-31T11:55:49.367Z,17.40
2022-12-31T11:58:34.625Z,16.08
2022-12-31T12:01:25.010Z,17.97
2022-12-31T12:04:11.267Z,19.25
2022-12-31T12:06:58.312Z,15.60
2022-12-31T12:09:45.574Z,14.23
2022-12-31T12:12:39.135Z,14.00
2022-12-31T12:15:27.759Z,14.00
2022-12-31T12:18:28.400Z,14.02
2022-12-31T12:21:16.728Z,13.20
2022-12-31T12:24:05.955Z,12.60
2022-12-31T12:26:51.603Z,13.50
2022-12-31T12:29:39.903Z,13.40
2022-12-31T12:32:26.737Z,12.95
2022-12-31T12:35:17.271Z,16.00
2022-12-31T12:38:04.810Z,16.25
2022-12-31T12:40:57.966Z,15.50
2022-12-31T12:43:43.403Z,14.67
2022-12-31T12:46:33.490Z,13.38
2022-12-31T12:49:24.097Z,13.60
2022-12-31T12:52:37.748Z,14.20
2022-12-31T12:55:29.181Z,14.35
2022-12-31T12:58:32.139Z,13.57
2022-12-31T13:01:26.251Z,15.88
2022-12-31T13:04:35.175Z,15.65
2022-12-31T13:07:31.539Z,16.40
2022-12-31T13:10:30.046Z,17.05
2022-12-31T13:13:25.843Z,17.87
2022-12-31T13:16:19.320Z,14.93
2022-12-31T13:19:11.806Z,14.70
2022-12-31T13:22:04.884Z,16.17
2022-12-31T13:25:00.990Z,13.38
2022-12-31T13:27:51.147Z,13.87
2022-12-31T13:30:41.711Z,14.07
2022-12-31T13:33:32.250Z,13.95
2022-12-31T13:36:20.421Z,12.80
2022-12-31T13:39:11.626Z,11.65
2022-12-31T13:42:02.591Z,14.53
2022-12-31T13:44:51.680Z,13.57
2022-12-31T13:47:42.926Z,15.65
2022-12-31T13:50:33.838Z,19.40
2022-12-31T13:53:26.835Z,18.35
2022-12-31T13:56:17.217Z,16.33
2022-12-31T13:59:06.983Z,20.13
2022-12-31T14:01:57.966Z,25.77
2022-12-31T14:04:50.587Z,39.83
2022-12-31T14:07:45.759Z,34.03
2022-12-31T14:10:42.862Z,28.43
2022-12-31T14:13:40.284Z,22.67
2022-12-31T14:16:36.113Z,22.02
2022-12-31T14:19:45.138Z,19.80
2022-12-31T14:22:38.494Z,16.45
2022-12-31T14:25:29.049Z,16.77
2022-12-31T14:28:19.616Z,15.32
2022-12-31T14:31:15.673Z,13.68
2022-12-31T14:34:08.503Z,13.40
2022-12-31T14:37:01.383Z,12.32
2022-12-31T14:39:58.897Z,15.27
2022-12-31T14:42:56.020Z,12.23
2022-12-31T14:45:53.831Z,12.43
2022-12-31T14:48:48.596Z,12.07
2022-12-31T14:51:37.134Z,16.85
2022-12-31T14:54:29.087Z,16.30
2022-12-31T14:57:23.985Z,18.52
2022-12-31T15:00:26.858Z,23.67
2022-12-31T15:03:25.266Z,20.85
2022-12-31T15:06:41.134Z,22.55
2022-12-31T15:09:48.977Z,24.52
2022-12-31T15:12:56.632Z,23.33
2022-12-31T15:16:01.964Z,22.83
2022-12-31T15:19:05.157Z,24.65
2022-12-31T15:22:02.483Z,26.77
2022-12-31T15:24:48.127Z,28.53
2022-12-31T15:27:36.810Z,28.95
2022-12-31T15:30:38.611Z,32.70
2022-12-31T15:33:33.761Z,39.88
2022-12-31T15:36:21.767Z,38.38
2022-12-31T15:39:25.692Z,41.60
2022-12-31T15:42:49.191Z,42.65
2022-12-31T15:45:38.762Z,46.70
2022-12-31T15:48:29.567Z,44.33
2022-12-31T15:51:17.911Z,51.67
2022-12-31T15:54:05.285Z,43.60
2022-12-31T15:56:53.261Z,49.80
2022-12-31T15:59:39.808Z,41.47
2022-12-31T16:02:28.882Z,44.20
2022-12-31T16:05:22.885Z,51.92
2022-12-31T16:08:19.211Z,41.37
2022-12-31T16:11:06.150Z,41.67
2022-12-31T16:13:54.899Z,39.85
2022-12-31T16:16:50.945Z,37.25
2022-12-31T16:19:48.458Z,38.38
2022-12-31T16:22:38.493Z,35.53
2022-12-31T16:25:33.112Z,33.20
2022-12-31T16:28:22.123Z,34.25
2022-12-31T16:31:13.992Z,33.63
2022-12-31T16:34:05.238Z,39.33
2022-12-31T16:37:04.471Z,38.47
2022-12-31T16:40:18.757Z,37.92
2022-12-31T16:43:04.451Z,43.05
2022-12-31T16:45:50.217Z,34.67
2022-12-31T16:48:36.981Z,39.85
2022-12-31T16:51:26.320Z,44.33
2022-12-31T16:54:19.522Z,34.63
2022-12-31T16:57:06.418Z,33.25
2022-12-31T16:59:55.916Z,35.30
2022-12-31T17:02:45.275Z,33.83
2022-12-31T17:05:32.705Z,35.90
2022-12-31T17:08:24.765Z,38.20
2022-12-31T17:11:25.231Z,39.17
2022-12-31T17:14:14.843Z,38.72
2022-12-31T17:17:03.533Z,43.83
2022-12-31T17:19:50.759Z,45.20
2022-12-31T17:22:41.953Z,48.20
2022-12-31T17:25:30.032Z,40.90
2022-12-31T17:28:23.993Z,41.70
2022-12-31T17:31:31.213Z,38.63
2022-12-31T17:34:22.763Z,38.88
2022-12-31T17:37:18.393Z,37.10
2022-12-31T17:40:41.040Z,29.52
2022-12-31T17:43:11.946Z,30.08
2022-12-31T17:45:59.122Z,28.63
2022-12-31T17:48:49.653Z,36.03
2022-12-31T17:51:35.013Z,36.67
2022-12-31T17:54:20.532Z,36.67
2022-12-31T17:57:06.746Z,36.95
2022-12-31T17:59:52.330Z,33.15
2022-12-31T18:02:39.489Z,32.15
2022-12-31T18:05:25.996Z,29.15
2022-12-31T18:08:11.299Z,24.20
2022-12-31T18:10:56.966Z,25.25
2022-12-31T18:13:43.025Z,19.83
2022-12-31T18:16:28.784Z,17.08
2022-12-31T18:19:45.608Z,20.50
2022-12-31T18:22:21.543Z,20.08
2022-12-31T18:25:07.504Z,24.38
2022-12-31T18:27:53.124Z,22.63
2022-12-31T18:30:39.216Z,21.73
2022-12-31T18:33:25.790Z,23.95
2022-12-31T18:36:15.269Z,24.20
2022-12-31T18:39:00.607Z,38.03
2022-12-31T18:41:49.663Z,48.95
2022-12-31T18:44:35.249Z,51.10
2022-12-31T18:47:23.310Z,35.50
2022-12-31T18:50:12.890Z,28.48
2022-12-31T18:52:59.853Z,29.55
2022-12-31T18:55:47.896Z,20.05
2022-12-31T18:58:33.260Z,20.73
2022-12-31T19:01:30.390Z,24.98
2022-12-31T19:04:26.535Z,22.05
2022-12-31T19:07:13.079Z,26.48
2022-12-31T19:09:59.734Z,27.15
2022-12-31T19:12:45.253Z,33.10
2022-12-31T19:15:33.503Z,29.08
2022-12-31T19:18:19.653Z,31.33
2022-12-31T19:21:05.841Z,33.35
2022-12-31T19:23:51.267Z,29.25
2022-12-31T19:26:43.160Z,31.10
2022-12-31T19:29:29.484Z,31.88
2022-12-31T19:32:15.186Z,33.40
2022-12-31T19:35:01.030Z,29.30
2022-12-31T19:37:49.115Z,30.42
2022-12-31T19:40:35.138Z,30.73
2022-12-31T19:43:23.518Z,31.60
2022-12-31T19:46:12.515Z,29.15
2022-12-31T19:48:58.065Z,28.05
2022-12-31T19:51:43.636Z,29.70
2022-12-31T19:54:29.280Z,35.00
2022-12-31T19:57:15.065Z,34.92
2022-12-31T20:00:01.963Z,34.67
2022-12-31T20:02:48.519Z,36.65
2022-12-31T20:05:33.931Z,31.40
2022-12-31T20:08:22.792Z,33.65
2022-12-31T20:11:09.136Z,29.13
2022-12-31T20:13:54.367Z,28.02
2022-12-31T20:16:41.204Z,27.88
2022-12-31T20:19:26.790Z,27.30
2022-12-31T20:22:12.022Z,27.13
2022-12-31T20:24:58.359Z,27.13
2022-12-31T20:27:43.740Z,22.83
2022-12-31T20:30:29.081Z,23.40
2022-12-31T20:33:19.168Z,26.63
2022-12-31T20:36:08.812Z,24.42
2022-12-31T20:38:54.149Z,23.98
2022-12-31T20:41:39.662Z,24.70
2022-12-31T20:44:25.144Z,20.13
2022-12-31T20:47:10.514Z,20.35
2022-12-31T20:50:14.394Z,15.07
2022-12-31T20:53:00.126Z,22.00
2022-12-31T20:55:45.389Z,19.33
2022-12-31T20:58:30.953Z,16.60
2022-12-31T21:01:17.870Z,15.90
2022-12-31T21:04:05.771Z,16.60
2022-12-31T21:06:53.678Z,17.08
2022-12-31T21:09:39.451Z,17.38
2022-12-31T21:12:43.367Z,18.88
2022-12-31T21:15:29.188Z,17.55
2022-12-31T21:18:14.939Z,17.58
2022-12-31T21:21:00.700Z,18.30
2022-12-31T21:23:47.895Z,16.58
2022-12-31T21:26:34.432Z,14.13
2022-12-31T21:29:19.886Z,12.63
2022-12-31T21:32:05.399Z,14.95
2022-12-31T21:35:14.343Z,17.48
2022-12-31T21:38:00.776Z,15.43
2022-12-31T21:40:47.954Z,15.18
2022-12-31T21:43:33.676Z,16.58
2022-12-31T21:46:19.334Z,16.07
2022-12-31T21:49:05.217Z,15.43
2022-12-31T21:52:09.071Z,13.85
2022-12-31T21:55:14.055Z,16.33
2022-12-31T22:01:26.569Z,14.17
2022-12-31T22:04:35.135Z,15.05
2022-12-31T22:07:17.952Z,12.15
2022-12-31T22:10:03.543Z,12.50
2022-12-31T22:12:49.125Z,12.00
2022-12-31T22:15:36.536Z,12.77
2022-12-31T22:18:22.348Z,11.70
2022-12-31T22:21:17.715Z,10.18
2022-12-31T22:24:05.434Z,11.20
2022-12-31T22:26:52.214Z,10.00
2022-12-31T22:29:38.011Z,11.13
2022-12-31T22:32:24.604Z,11.00
2022-12-31T22:35:11.203Z,10.50
2022-12-31T22:38:00.193Z,11.48
2022-12-31T22:40:48.970Z,11.40
2022-12-31T22:43:36.141Z,11.45
2022-12-31T22:46:24.199Z,11.60
2022-12-31T22:49:11.591Z,9.93
2022-12-31T22:52:00.731Z,11.68
2022-12-31T22:54:48.589Z,9.85
2022-12-31T22:57:34.183Z,10.02
2022-12-31T23:00:19.840Z,9.82
2022-12-31T23:03:05.268Z,8.80
2022-12-31T23:05:52.997Z,9.23
2022-12-31T23:08:38.751Z,10.52
2022-12-31T23:11:24.746Z,10.35
2022-12-31T23:14:34.165Z,10.90
2022-12-31T23:17:40.140Z,10.07
2022-12-31T23:20:44.885Z,9.48
2022-12-31T23:23:32.009Z,9.48
2022-12-31T23:26:17.551Z,9.15
2022-12-31T23:29:03.203Z,9.45
2022-12-31T23:31:48.699Z,9.85
2022-12-31T23:34:34.317Z,12.32
2022-12-31T23:37:19.897Z,11.75
2022-12-31T23:40:08.238Z,10.95
2022-12-31T23:42:54.381Z,15.45
2022-12-31T23:45:39.876Z,11.88
2022-12-31T23:48:25.248Z,12.23
2022-12-31T23:51:10.831Z,10.23
2022-12-31T23:53:56.340Z,12.45
2022-12-31T23:56:43.230Z,10.65
2022-12-31T23:59:28.918Z,11.60
